createdAt,value
2019-01-02T00:01:44.029Z,162.17
2019-01-02T00:04:15.066Z,146.43
2019-01-02T00:06:45.304Z,118.23
2019-01-02T00:09:15.595Z,152.30
2019-01-02T00:11:46.330Z,177.70
2019-01-02T00:14:17.623Z,193.17
2019-01-02T00:16:48.551Z,187.30
2019-01-02T00:19:21.488Z,184.27
2019-01-02T00:21:52.136Z,188.13
2019-01-02T00:24:22.424Z,196.07
2019-01-02T00:26:52.590Z,189.00
2019-01-02T00:29:22.874Z,179.07
2019-01-02T00:31:53.085Z,179.27
2019-01-02T00:34:23.722Z,183.40
2019-01-02T00:36:54.083Z,177.07
2019-01-02T00:39:24.762Z,177.17
2019-01-02T00:41:54.934Z,160.83
2019-01-02T00:44:25.544Z,170.10
2019-01-02T00:46:55.813Z,195.20
2019-01-02T00:49:26.465Z,165.70
2019-01-02T00:51:56.864Z,180.20
2019-01-02T00:54:27.124Z,178.50
2019-01-02T00:56:57.479Z,172.57
2019-01-02T00:59:27.801Z,175.47
2019-01-02T01:01:58.060Z,183.67
2019-01-02T01:04:28.426Z,183.03
2019-01-02T01:06:58.928Z,176.00
2019-01-02T01:09:29.581Z,171.50
2019-01-02T01:11:59.752Z,172.20
2019-01-02T01:14:30.051Z,171.80
2019-01-02T01:17:00.348Z,169.30
2019-01-02T01:19:30.672Z,165.03
2019-01-02T01:22:01.957Z,180.37
2019-01-02T01:24:32.233Z,180.30
2019-01-02T01:27:02.867Z,178.03
2019-01-02T01:29:33.223Z,175.93
2019-01-02T01:32:03.493Z,181.20
2019-01-02T01:34:33.705Z,168.60
2019-01-02T01:37:04.101Z,165.27
2019-01-02T01:39:34.380Z,171.07
2019-01-02T01:42:04.581Z,165.40
2019-01-02T01:44:34.849Z,174.87
2019-01-02T01:47:05.491Z,177.40
2019-01-02T01:49:35.761Z,187.87
2019-01-02T01:52:06.173Z,171.77
2019-01-02T01:54:36.736Z,174.20
2019-01-02T01:57:06.917Z,170.50
2019-01-02T01:59:37.249Z,165.67
2019-01-02T02:02:07.490Z,181.80
2019-01-02T02:04:37.709Z,180.13
2019-01-02T02:07:08.264Z,170.60
2019-01-02T02:09:38.530Z,166.60
2019-01-02T02:12:08.797Z,173.53
2019-01-02T02:14:39.384Z,171.80
2019-01-02T02:17:09.652Z,180.90
2019-01-02T02:19:39.936Z,180.83
2019-01-02T02:22:10.209Z,164.83
2019-01-02T02:24:41.493Z,174.97
2019-01-02T02:27:12.058Z,180.73
2019-01-02T02:29:42.306Z,185.30
2019-01-02T02:32:12.596Z,172.33
2019-01-02T02:34:42.818Z,177.40
2019-01-02T02:37:13.005Z,174.33
2019-01-02T02:39:43.230Z,170.03
2019-01-02T02:42:13.872Z,182.47
2019-01-02T02:44:44.285Z,174.03
2019-01-02T02:47:14.541Z,168.77
2019-01-02T02:49:44.911Z,168.90
2019-01-02T02:52:15.244Z,169.97
2019-01-02T02:54:45.508Z,168.33
2019-01-02T02:57:15.751Z,159.27
2019-01-02T02:59:45.974Z,151.43
2019-01-02T03:02:16.260Z,156.73
2019-01-02T03:04:46.663Z,156.00
2019-01-02T03:07:17.098Z,158.23
2019-01-02T03:09:47.681Z,155.57
2019-01-02T03:12:19.242Z,147.50
2019-01-02T03:14:49.542Z,150.27
2019-01-02T03:17:19.860Z,149.43
2019-01-02T03:19:50.406Z,151.83
2019-01-02T03:22:21.089Z,156.23
2019-01-02T03:24:52.749Z,162.13
2019-01-02T03:27:23.322Z,155.33
2019-01-02T03:29:53.748Z,160.77
2019-01-02T03:32:23.894Z,148.63
2019-01-02T03:34:54.378Z,161.40
2019-01-02T03:37:24.664Z,159.17
2019-01-02T03:39:55.071Z,141.67
2019-01-02T03:42:25.344Z,147.63
2019-01-02T03:44:55.599Z,144.53
2019-01-02T03:47:25.890Z,143.53
2019-01-02T03:49:56.289Z,146.47
2019-01-02T03:52:26.563Z,141.13
2019-01-02T03:54:56.862Z,140.03
2019-01-02T03:57:27.005Z,138.97
2019-01-02T03:59:57.391Z,130.40
2019-01-02T04:02:27.620Z,134.87
2019-01-02T04:04:57.844Z,135.33
2019-01-02T04:07:28.045Z,135.57
2019-01-02T04:09:58.314Z,140.90
2019-01-02T04:12:28.489Z,136.30
2019-01-02T04:14:58.777Z,129.03
2019-01-02T04:17:29.077Z,120.37
2019-01-02T04:19:59.365Z,122.10
2019-01-02T04:22:29.718Z,125.70
2019-01-02T04:24:59.875Z,118.77
2019-01-02T04:27:31.223Z,120.40
2019-01-02T04:30:01.508Z,117.73
2019-01-02T04:32:31.722Z,119.50
2019-01-02T04:35:01.958Z,119.27
2019-01-02T04:37:32.200Z,114.97
2019-01-02T04:40:02.479Z,106.93
2019-01-02T04:42:32.710Z,105.93
2019-01-02T04:45:02.989Z,98.97
2019-01-02T04:47:33.210Z,101.93
2019-01-02T04:50:03.409Z,113.27
2019-01-02T04:52:33.772Z,112.93
2019-01-02T04:55:04.130Z,108.27
2019-01-02T04:57:34.426Z,107.13
2019-01-02T05:00:05.442Z,108.27
2019-01-02T05:02:35.690Z,107.20
2019-01-02T05:05:06.021Z,106.03
2019-01-02T05:07:36.314Z,113.87
2019-01-02T05:10:07.843Z,104.97
2019-01-02T05:12:38.104Z,105.20
2019-01-02T05:15:09.164Z,106.90
2019-01-02T05:17:39.509Z,102.90
2019-01-02T05:20:12.330Z,99.73
2019-01-02T05:22:42.927Z,99.37
2019-01-02T05:25:13.378Z,103.30
2019-01-02T05:27:43.690Z,106.37
2019-01-02T05:30:21.121Z,107.67
2019-01-02T05:32:51.429Z,111.60
2019-01-02T05:35:21.685Z,102.63
2019-01-02T05:37:51.925Z,104.47
2019-01-02T05:40:24.870Z,110.20
2019-01-02T05:42:55.183Z,110.90
2019-01-02T05:45:25.442Z,105.87
2019-01-02T05:47:56.546Z,104.43
2019-01-02T05:50:27.318Z,104.20
2019-01-02T05:52:58.481Z,96.70
2019-01-02T05:55:28.837Z,101.80
2019-01-02T05:57:59.126Z,101.40
2019-01-02T06:00:29.453Z,102.43
2019-01-02T06:02:59.907Z,108.57
2019-01-02T06:05:30.166Z,100.47
2019-01-02T06:08:00.387Z,103.83
2019-01-02T06:10:30.673Z,112.50
2019-01-02T06:13:00.921Z,110.53
2019-01-02T06:15:31.174Z,102.60
2019-01-02T06:18:01.446Z,104.73
2019-01-02T06:20:31.900Z,97.63
2019-01-02T06:23:02.153Z,108.37
2019-01-02T06:25:32.410Z,112.40
2019-01-02T06:28:02.816Z,103.50
2019-01-02T06:30:33.317Z,101.60
2019-01-02T06:33:05.246Z,86.07
2019-01-02T06:35:35.506Z,118.53
2019-01-02T06:38:05.718Z,124.57
2019-01-02T06:40:39.098Z,100.77
2019-01-02T06:43:27.617Z,93.23
2019-01-02T06:45:58.071Z,108.30
2019-01-02T06:48:28.294Z,110.70
2019-01-02T06:50:58.558Z,116.87
2019-01-02T06:53:28.940Z,115.37
2019-01-02T06:55:59.190Z,100.13
2019-01-02T06:58:29.367Z,89.23
2019-01-02T07:01:00.206Z,114.27
2019-01-02T07:03:30.435Z,115.27
2019-01-02T07:06:00.756Z,98.80
2019-01-02T07:08:31.091Z,98.53
2019-01-02T07:11:02.712Z,96.90
2019-01-02T07:13:32.993Z,123.43
2019-01-02T07:16:03.380Z,100.80
2019-01-02T07:18:33.642Z,111.43
2019-01-02T07:21:03.822Z,118.03
2019-01-02T07:23:34.120Z,97.77
2019-01-02T07:26:04.408Z,118.97
2019-01-02T07:28:34.630Z,139.53
2019-01-02T07:31:04.894Z,173.60
2019-01-02T07:33:44.847Z,127.07
2019-01-02T07:36:43.447Z,141.43
2019-01-02T07:39:44.960Z,124.70
2019-01-02T07:42:58.008Z,108.00
2019-01-02T07:46:02.637Z,111.63
2019-01-02T07:49:09.137Z,134.87
2019-01-02T07:52:02.157Z,129.43
2019-01-02T07:54:58.466Z,129.30
2019-01-02T07:58:11.832Z,140.47
2019-01-02T08:00:52.736Z,132.17
2019-01-02T08:04:09.515Z,133.77
2019-01-02T08:07:15.781Z,150.83
2019-01-02T08:10:11.294Z,124.57
2019-01-02T08:13:18.687Z,114.00
2019-01-02T08:16:34.271Z,143.17
2019-01-02T08:19:37.261Z,113.87
2019-01-02T08:22:48.749Z,120.13
2019-01-02T08:25:48.361Z,118.30
2019-01-02T08:29:05.275Z,123.60
2019-01-02T08:32:31.303Z,118.47
2019-01-02T08:35:41.907Z,106.87
2019-01-02T08:38:46.319Z,88.30
2019-01-02T08:42:21.426Z,80.07
2019-01-02T08:45:35.592Z,90.20
2019-01-02T08:48:53.843Z,86.73
2019-01-02T08:52:23.040Z,103.20
2019-01-02T08:55:38.012Z,114.47
2019-01-02T08:58:44.686Z,125.17
2019-01-02T09:02:10.822Z,101.37
2019-01-02T09:05:06.068Z,102.90
2019-01-02T09:08:07.756Z,100.30
2019-01-02T09:10:58.589Z,99.60
2019-01-02T09:13:52.525Z,102.13
2019-01-02T09:17:12.442Z,85.53
2019-01-02T09:20:11.010Z,87.97
2019-01-02T09:23:27.034Z,66.37
2019-01-02T09:26:47.123Z,63.63
2019-01-02T09:30:06.293Z,62.37
2019-01-02T09:33:35.189Z,57.80
2019-01-02T09:36:50.875Z,62.90
2019-01-02T09:39:44.444Z,63.63
2019-01-02T09:42:46.454Z,60.07
2019-01-02T09:45:50.422Z,65.77
2019-01-02T09:49:19.831Z,62.43
2019-01-02T09:52:25.499Z,57.53
2019-01-02T09:55:45.983Z,57.40
2019-01-02T09:58:48.329Z,57.90
2019-01-02T10:02:02.306Z,55.90
2019-01-02T10:05:22.189Z,59.33
2019-01-02T10:08:51.394Z,54.47
2019-01-02T10:11:45.990Z,57.07
2019-01-02T10:14:51.938Z,53.13
2019-01-02T10:18:05.279Z,49.03
2019-01-02T10:20:56.524Z,52.03
2019-01-02T10:24:07.835Z,47.17
2019-01-02T10:27:13.541Z,42.10
2019-01-02T10:30:27.371Z,33.63
2019-01-02T10:33:21.543Z,26.60
2019-01-02T10:36:16.625Z,28.83
2019-01-02T10:39:14.914Z,19.20
2019-01-02T10:42:26.806Z,12.13
2019-01-02T10:45:33.615Z,14.37
2019-01-02T10:48:56.111Z,16.10
2019-01-02T10:52:05.703Z,13.13
2019-01-02T10:55:12.485Z,10.50
2019-01-02T10:58:25.302Z,6.77
2019-01-02T11:01:39.705Z,1.90
2019-01-02T11:05:05.886Z,1.77
2019-01-02T11:08:13.519Z,0.93
2019-01-02T11:11:07.567Z,0.50
2019-01-02T11:14:29.810Z,0.47
2019-01-02T11:17:58.809Z,1.63
2019-01-02T11:20:54.828Z,0.53
2019-01-02T11:24:15.030Z,0.93
2019-01-02T11:27:28.975Z,0.90
2019-01-02T11:30:28.370Z,1.37
2019-01-02T11:33:34.851Z,1.77
2019-01-02T11:36:57.911Z,1.83
2019-01-02T11:40:23.732Z,0.30
2019-01-02T11:43:48.331Z,0.60
2019-01-02T11:46:18.581Z,2.67
2019-01-02T11:48:48.881Z,1.77
2019-01-02T11:51:19.225Z,0.40
2019-01-02T11:53:49.430Z,5.17
2019-01-02T11:56:20.571Z,3.40
2019-01-02T11:58:50.910Z,0.60
2019-01-02T12:01:21.234Z,2.23
2019-01-02T12:03:51.537Z,0.50
2019-01-02T12:06:21.805Z,0.53
2019-01-02T12:08:52.208Z,1.87
2019-01-02T12:11:22.479Z,1.07
2019-01-02T12:13:52.734Z,0.87
2019-01-02T12:16:23.016Z,2.50
2019-01-02T12:18:53.477Z,1.53
2019-01-02T12:21:23.900Z,0.83
2019-01-02T12:23:54.042Z,0.87
2019-01-02T12:26:24.364Z,0.53
2019-01-02T12:28:54.705Z,2.63
2019-01-02T12:31:24.932Z,1.43
2019-01-02T12:33:55.218Z,0.30
2019-01-02T12:36:25.504Z,2.40
2019-01-02T12:38:55.399Z,0.57
2019-01-02T12:41:25.550Z,0.50
2019-01-02T12:43:56.633Z,0.40
2019-01-02T12:46:26.981Z,1.07
2019-01-02T12:48:57.913Z,0.60
2019-01-02T12:51:28.217Z,1.20
2019-01-02T12:53:58.466Z,1.37
2019-01-02T12:56:28.744Z,4.83
2019-01-02T12:58:58.973Z,1.20
2019-01-02T13:01:45.529Z,0.33
2019-01-02T13:05:14.152Z,0.63
2019-01-02T13:08:39.261Z,1.20
2019-01-02T13:11:44.606Z,0.70
2019-01-02T13:14:41.860Z,0.40
2019-01-02T13:17:36.908Z,0.67
2019-01-02T13:20:52.752Z,2.37
2019-01-02T13:23:50.183Z,0.50
2019-01-02T13:26:25.134Z,0.67
2019-01-02T13:30:00.084Z,0.50
2019-01-02T13:33:00.675Z,0.70
2019-01-02T13:35:59.474Z,0.83
2019-01-02T13:38:41.833Z,0.53
2019-01-02T13:41:39.065Z,2.60
2019-01-02T13:44:43.387Z,1.13
2019-01-02T13:47:52.543Z,1.00
2019-01-02T13:51:06.466Z,1.70
2019-01-02T13:53:36.730Z,1.70
2019-01-02T13:56:08.772Z,1.00
2019-01-02T13:58:42.460Z,2.63
2019-01-02T14:01:12.880Z,0.50
2019-01-02T14:03:45.351Z,0.60
2019-01-02T14:06:15.704Z,0.63
2019-01-02T14:08:46.547Z,2.33
2019-01-02T14:11:16.953Z,1.37
2019-01-02T14:13:47.289Z,1.17
2019-01-02T14:16:17.529Z,2.27
2019-01-02T14:18:47.810Z,1.63
2019-01-02T14:21:18.124Z,0.40
2019-01-02T14:23:48.420Z,1.07
2019-01-02T14:26:18.660Z,0.83
2019-01-02T14:28:48.917Z,1.10
2019-01-02T14:31:19.549Z,1.50
2019-01-02T14:33:49.858Z,1.17
2019-01-02T14:36:21.296Z,1.47
2019-01-02T14:38:51.375Z,3.70
2019-01-02T14:41:21.942Z,0.87
2019-01-02T14:43:52.222Z,2.10
2019-01-02T14:46:22.413Z,0.90
2019-01-02T14:48:53.681Z,1.20
2019-01-02T14:51:23.866Z,2.70
2019-01-02T14:53:54.114Z,0.47
2019-01-02T14:56:24.409Z,0.67
2019-01-02T14:58:54.778Z,0.73
2019-01-02T15:01:24.979Z,2.33
2019-01-02T15:03:55.248Z,0.67
2019-01-02T15:06:25.656Z,0.80
2019-01-02T15:08:55.874Z,1.90
2019-01-02T15:11:26.159Z,0.60
2019-01-02T15:13:56.812Z,0.50
2019-01-02T15:16:30.543Z,2.33
2019-01-02T15:19:01.474Z,1.73
2019-01-02T15:21:31.883Z,0.70
2019-01-02T15:24:02.982Z,0.50
2019-01-02T15:26:48.411Z,3.23
2019-01-02T15:29:18.771Z,0.83
2019-01-02T15:31:48.989Z,1.47
2019-01-02T15:34:19.271Z,2.30
2019-01-02T15:36:49.577Z,0.70
2019-01-02T15:39:19.772Z,0.63
2019-01-02T15:41:50.066Z,1.43
2019-01-02T15:44:20.421Z,1.30
2019-01-02T15:46:50.705Z,0.40
2019-01-02T15:49:20.877Z,2.03
2019-01-02T15:51:52.023Z,2.10
2019-01-02T15:54:22.226Z,1.83
2019-01-02T15:56:52.405Z,0.73
2019-01-02T15:59:22.679Z,0.77
2019-01-02T16:01:52.916Z,0.57
2019-01-02T16:04:23.150Z,0.47
2019-01-02T16:06:53.513Z,0.80
2019-01-02T16:09:23.776Z,1.40
2019-01-02T16:11:54.117Z,0.67
2019-01-02T16:14:24.525Z,1.23
2019-01-02T16:16:54.870Z,0.73
2019-01-02T16:19:25.051Z,1.60
2019-01-02T16:21:55.334Z,0.70
2019-01-02T16:24:25.542Z,0.70
2019-01-02T16:26:55.831Z,0.67
2019-01-02T16:29:26.147Z,0.83
2019-01-02T16:31:56.378Z,3.97
2019-01-02T16:34:26.525Z,1.80
2019-01-02T16:36:56.925Z,1.47
2019-01-02T16:39:27.426Z,6.60
2019-01-02T16:41:57.674Z,0.33
2019-01-02T16:44:27.937Z,0.57
2019-01-02T16:46:58.145Z,2.67
2019-01-02T16:49:28.363Z,0.33
2019-01-02T16:51:58.636Z,0.97
2019-01-02T16:54:29.786Z,2.37
2019-01-02T16:57:00.032Z,1.43
2019-01-02T16:59:30.309Z,1.87
2019-01-02T17:02:02.514Z,1.70
2019-01-02T17:04:32.833Z,0.60
2019-01-02T17:07:03.068Z,0.80
2019-01-02T17:09:33.229Z,0.40
2019-01-02T17:12:03.565Z,0.90
2019-01-02T17:14:33.861Z,1.80
2019-01-02T17:17:04.327Z,2.00
2019-01-02T17:19:34.610Z,4.70
2019-01-02T17:22:04.781Z,1.93
2019-01-02T17:24:34.915Z,2.37
2019-01-02T17:27:05.199Z,3.50
2019-01-02T17:29:35.353Z,0.70
2019-01-02T17:32:05.621Z,1.27
2019-01-02T17:34:35.977Z,1.77
2019-01-02T17:37:06.184Z,1.43
2019-01-02T17:39:36.431Z,1.33
2019-01-02T17:42:06.714Z,2.90
2019-01-02T17:44:37.029Z,2.40
2019-01-02T17:47:07.209Z,1.53
2019-01-02T17:49:37.471Z,2.60
2019-01-02T17:52:07.945Z,3.10
2019-01-02T17:54:38.224Z,2.00
2019-01-02T17:57:09.500Z,2.33
2019-01-02T17:59:39.777Z,1.53
2019-01-02T18:02:10.008Z,1.40
2019-01-02T18:04:40.488Z,1.97
2019-01-02T18:07:11.417Z,0.90
2019-01-02T18:09:41.786Z,1.40
2019-01-02T18:12:12.264Z,2.73
2019-01-02T18:14:42.415Z,0.63
2019-01-02T18:17:12.677Z,1.97
2019-01-02T18:19:43.130Z,0.70
2019-01-02T18:22:13.823Z,0.63
2019-01-02T18:24:44.133Z,1.13
2019-01-02T18:27:14.413Z,0.70
2019-01-02T18:29:44.666Z,1.70
2019-01-02T18:32:14.902Z,1.17
2019-01-02T18:34:47.182Z,3.60
2019-01-02T18:37:17.599Z,2.50
2019-01-02T18:39:48.656Z,1.13
2019-01-02T18:42:21.577Z,1.53
2019-01-02T18:44:51.828Z,2.87
2019-01-02T18:47:22.084Z,1.40
2019-01-02T18:49:55.942Z,1.17
2019-01-02T18:52:28.548Z,3.13
2019-01-02T18:54:58.830Z,1.70
2019-01-02T18:57:29.276Z,1.80
2019-01-02T19:00:06.005Z,1.63
2019-01-02T19:02:32.542Z,2.03
2019-01-02T19:05:05.514Z,3.60
2019-01-02T19:07:35.753Z,3.63
2019-01-02T19:10:06.411Z,1.80
2019-01-02T19:12:38.546Z,1.93
2019-01-02T19:15:11.979Z,2.17
2019-01-02T19:17:42.313Z,2.83
2019-01-02T19:20:12.573Z,2.20
2019-01-02T19:22:42.832Z,3.10
2019-01-02T19:25:15.603Z,3.13
2019-01-02T19:27:46.088Z,3.37
2019-01-02T19:30:18.288Z,2.17
2019-01-02T19:32:48.678Z,2.20
2019-01-02T19:35:18.935Z,2.07
2019-01-02T19:37:49.109Z,1.23
2019-01-02T19:40:22.751Z,1.50
2019-01-02T19:42:53.221Z,0.70
2019-01-02T19:45:24.179Z,1.23
2019-01-02T19:47:54.528Z,2.23
2019-01-02T19:50:25.023Z,1.23
2019-01-02T19:52:55.315Z,1.00
2019-01-02T19:55:25.561Z,0.80
2019-01-02T19:57:55.893Z,1.67
2019-01-02T20:00:26.230Z,2.23
2019-01-02T20:02:57.361Z,0.70
2019-01-02T20:05:27.704Z,1.33
2019-01-02T20:07:58.121Z,1.30
2019-01-02T20:10:28.310Z,1.87
2019-01-02T20:12:58.623Z,1.77
2019-01-02T20:15:28.916Z,3.10
2019-01-02T20:17:59.232Z,2.53
2019-01-02T20:20:29.492Z,2.90
2019-01-02T20:22:59.738Z,2.47
2019-01-02T20:25:29.989Z,4.57
2019-01-02T20:28:00.289Z,3.17
2019-01-02T20:30:30.421Z,3.50
2019-01-02T20:33:00.541Z,4.00
2019-01-02T20:35:30.944Z,4.27
2019-01-02T20:38:01.254Z,5.00
2019-01-02T20:40:31.508Z,4.27
2019-01-02T20:43:01.791Z,6.40
2019-01-02T20:45:32.084Z,7.60
2019-01-02T20:48:02.243Z,7.20
2019-01-02T20:50:32.477Z,6.87
2019-01-02T20:53:02.836Z,6.33
2019-01-02T20:55:33.015Z,5.27
2019-01-02T20:58:03.314Z,6.30
2019-01-02T21:00:33.594Z,10.77
2019-01-02T21:03:04.880Z,9.40
2019-01-02T21:05:35.204Z,9.33
2019-01-02T21:08:05.481Z,7.50
2019-01-02T21:10:35.728Z,5.47
2019-01-02T21:13:05.984Z,5.17
2019-01-02T21:15:36.219Z,4.33
2019-01-02T21:18:06.491Z,3.30
2019-01-02T21:20:36.949Z,3.87
2019-01-02T21:23:07.273Z,3.70
2019-01-02T21:25:37.541Z,5.83
2019-01-02T21:28:07.836Z,6.80
2019-01-02T21:30:38.214Z,4.20
2019-01-02T21:33:08.467Z,5.10
2019-01-02T21:35:38.768Z,4.33
2019-01-02T21:38:09.063Z,5.47
2019-01-02T21:40:39.292Z,5.53
2019-01-02T21:43:09.555Z,7.20
2019-01-02T21:45:39.830Z,7.30
2019-01-02T21:48:09.945Z,11.23
2019-01-02T21:50:40.197Z,7.73
2019-01-02T21:53:10.449Z,4.57
2019-01-02T21:55:40.694Z,8.63
2019-01-02T21:58:11.002Z,5.33
2019-01-02T22:00:41.337Z,8.43
2019-01-02T22:03:12.507Z,8.27
2019-01-02T22:05:42.790Z,6.17
2019-01-02T22:08:13.025Z,7.50
2019-01-02T22:10:43.271Z,3.87
2019-01-02T22:13:13.548Z,6.77
2019-01-02T22:15:43.866Z,4.60
2019-01-02T22:18:14.116Z,5.83
2019-01-02T22:20:44.414Z,2.67
2019-01-02T22:23:14.677Z,7.97
2019-01-02T22:25:44.866Z,10.47
2019-01-02T22:28:15.152Z,25.47
2019-01-02T22:30:45.500Z,14.77
2019-01-02T22:33:15.869Z,13.90
2019-01-02T22:35:46.122Z,7.63
2019-01-02T22:38:16.433Z,7.07
2019-01-02T22:40:46.633Z,6.97
2019-01-02T22:43:16.940Z,10.03
2019-01-02T22:45:47.191Z,11.00
2019-01-02T22:48:17.410Z,12.53
2019-01-02T22:50:47.679Z,5.73
2019-01-02T22:53:17.952Z,23.43
2019-01-02T22:55:48.174Z,11.63
2019-01-02T22:58:18.442Z,10.20
2019-01-02T23:01:06.383Z,4.17
2019-01-02T23:03:52.774Z,2.17
2019-01-02T23:06:40.924Z,0.67
2019-01-02T23:09:18.829Z,0.80
2019-01-02T23:12:06.863Z,0.60
2019-01-02T23:14:54.700Z,1.47
2019-01-02T23:17:56.151Z,1.23
2019-01-02T23:20:48.389Z,1.40
2019-01-02T23:23:55.783Z,2.67
2019-01-02T23:26:43.514Z,3.87
2019-01-02T23:29:31.347Z,1.00
2019-01-02T23:32:19.386Z,1.17
2019-01-02T23:35:19.507Z,0.80
2019-01-02T23:38:07.445Z,2.90
2019-01-02T23:40:56.296Z,1.13
2019-01-02T23:43:48.840Z,1.43
2019-01-02T23:46:44.057Z,0.57
2019-01-02T23:49:31.786Z,1.13
2019-01-02T23:52:23.922Z,1.33
2019-01-02T23:55:11.960Z,2.03
2019-01-02T23:57:59.589Z,0.93
